Adrian, Ohio
Current Conditions -  °F | °C
As of 11:53 PM on Thursday 30 Oct 2014 (Local Time) from KFDY Reporting Station
Overcast Overcast  
Wind Chill: 42°   Ceiling: 5000
Heat Index: 44°   Visibility: 10mi
Dew Point: 38°   Wind: 5mph
Humidity: 79%   Direction: 210°SSW
Pressure: 30.03"   Gusts: NA
Location:  41°N, 83.32°W
Report Text: KFDY 310353Z AUTO 21004KT 10SM BKN050 OVC110 07/03 A3003 RMK AO2 SLP170 T00670033
Loading
Personal Weather Stations






























Interactive Weather Map New forecast layout! Learn more

10-Day Weather Forecast

Advertisements
Track Severe Weather on mobile